createdAt,value
2018-03-22T00:00:45.795Z,58.17
2018-03-22T00:01:45.813Z,57.42
2018-03-22T00:02:45.832Z,56.66
2018-03-22T00:03:45.839Z,56.46
2018-03-22T00:04:45.863Z,57.04
2018-03-22T00:05:45.870Z,56.27
2018-03-22T00:06:45.884Z,55.62
2018-03-22T00:07:45.899Z,55.62
2018-03-22T00:08:45.911Z,55.90
2018-03-22T00:09:45.927Z,55.90
2018-03-22T00:10:45.971Z,55.62
2018-03-22T00:11:45.956Z,55.58
2018-03-22T00:12:45.964Z,56.06
2018-03-22T00:13:45.979Z,56.53
2018-03-22T00:14:45.999Z,57.67
2018-03-22T00:15:46.026Z,58.14
2018-03-22T00:16:46.021Z,58.02
2018-03-22T00:17:46.046Z,59.09
2018-03-22T00:18:46.054Z,58.81
2018-03-22T00:19:46.063Z,59.09
2018-03-22T00:20:46.082Z,58.62
2018-03-22T00:21:46.091Z,57.95
2018-03-22T00:22:46.115Z,58.81
2018-03-22T00:23:46.123Z,58.97
2018-03-22T00:24:46.134Z,59.63
2018-03-22T00:25:46.168Z,60.10
2018-03-22T00:26:46.170Z,60.10
2018-03-22T00:27:46.187Z,59.72
2018-03-22T00:28:46.193Z,60.58
2018-03-22T00:29:46.209Z,60.51
2018-03-22T00:30:46.215Z,59.38
2018-03-22T00:31:46.228Z,58.14
2018-03-22T00:32:46.245Z,57.95
2018-03-22T00:33:46.264Z,57.76
2018-03-22T00:34:46.274Z,57.39
2018-03-22T00:35:46.290Z,57.32
2018-03-22T00:36:46.303Z,56.82
2018-03-22T00:37:46.314Z,56.91
2018-03-22T00:38:46.325Z,56.94
2018-03-22T00:39:46.342Z,56.56
2018-03-22T00:40:46.369Z,55.99
2018-03-22T00:41:46.373Z,55.62
2018-03-22T00:42:46.390Z,55.80
2018-03-22T00:43:46.408Z,55.68
2018-03-22T00:44:46.433Z,55.90
2018-03-22T00:45:46.418Z,55.87
2018-03-22T00:46:46.441Z,56.34
2018-03-22T00:47:46.468Z,57.29
2018-03-22T00:48:46.468Z,57.86
2018-03-22T00:49:46.526Z,58.62
2018-03-22T00:50:46.492Z,59.09
2018-03-22T00:51:46.505Z,58.90
2018-03-22T00:52:46.522Z,60.48
2018-03-22T00:53:46.537Z,61.90
2018-03-22T00:54:46.547Z,61.52
2018-03-22T00:55:46.560Z,61.52
2018-03-22T00:56:46.575Z,61.24
2018-03-22T00:57:46.586Z,61.52
2018-03-22T00:58:46.615Z,61.90
2018-03-22T00:59:46.621Z,61.43
2018-03-22T01:00:46.653Z,61.52
2018-03-22T01:01:46.640Z,61.71
2018-03-22T01:02:46.661Z,62.09
2018-03-22T01:03:46.668Z,61.99
2018-03-22T01:04:46.686Z,61.61
2018-03-22T01:05:46.696Z,61.24
2018-03-22T01:06:46.712Z,61.52
2018-03-22T01:07:46.727Z,61.33
2018-03-22T01:08:46.738Z,61.71
2018-03-22T01:09:46.756Z,62.47
2018-03-22T01:10:46.772Z,61.99
2018-03-22T01:11:46.806Z,62.18
2018-03-22T01:12:46.791Z,62.66
2018-03-22T01:13:46.812Z,62.56
2018-03-22T01:14:46.830Z,62.94
2018-03-22T01:15:46.840Z,62.66
2018-03-22T01:16:46.851Z,61.33
2018-03-22T01:17:46.862Z,61.43
2018-03-22T01:18:46.875Z,62.09
2018-03-22T01:19:46.893Z,62.06
2018-03-22T01:20:46.902Z,62.44
2018-03-22T01:21:46.911Z,63.20
2018-03-22T01:22:46.930Z,63.57
2018-03-22T01:23:46.947Z,63.85
2018-03-22T01:24:46.957Z,63.76
2018-03-22T01:25:46.977Z,63.67
2018-03-22T01:26:46.984Z,63.67
2018-03-22T01:27:47.007Z,63.39
2018-03-22T01:28:47.014Z,63.42
2018-03-22T01:29:47.041Z,62.66
2018-03-22T01:30:47.040Z,62.09
2018-03-22T01:31:47.059Z,61.43
2018-03-22T01:32:47.064Z,61.24
2018-03-22T01:33:47.078Z,61.71
2018-03-22T01:34:47.091Z,60.51
2018-03-22T01:35:47.109Z,60.61
2018-03-22T01:36:47.118Z,60.48
2018-03-22T01:37:47.139Z,60.96
2018-03-22T01:38:47.148Z,61.90
2018-03-22T01:39:47.165Z,61.99
2018-03-22T01:40:47.173Z,62.28
2018-03-22T01:41:47.183Z,61.24
2018-03-22T01:42:47.204Z,60.86
2018-03-22T01:43:47.212Z,60.41
2018-03-22T01:44:47.228Z,60.03
2018-03-22T01:45:47.253Z,60.58
2018-03-22T01:46:47.259Z,60.29
2018-03-22T01:47:47.270Z,60.22
2018-03-22T01:48:47.280Z,60.38
2018-03-22T01:49:47.294Z,60.67
2018-03-22T01:50:47.307Z,60.29
2018-03-22T01:51:47.323Z,61.24
2018-03-22T01:52:47.330Z,61.24
2018-03-22T01:53:47.350Z,63.10
2018-03-22T01:54:47.360Z,63.67
2018-03-22T01:55:47.368Z,64.61
2018-03-22T01:56:47.390Z,64.52
2018-03-22T01:57:47.397Z,64.99
2018-03-22T01:58:47.419Z,64.99
2018-03-22T01:59:47.422Z,64.90
2018-03-22T02:00:47.446Z,64.90
2018-03-22T02:01:47.461Z,64.52
2018-03-22T02:02:47.466Z,64.61
2018-03-22T02:03:47.483Z,64.23
2018-03-22T02:04:47.490Z,64.42
2018-03-22T02:05:47.505Z,63.95
2018-03-22T02:06:47.519Z,64.71
2018-03-22T02:07:47.534Z,63.89
2018-03-22T02:08:47.546Z,62.66
2018-03-22T02:09:47.558Z,61.90
2018-03-22T02:10:47.568Z,61.65
2018-03-22T02:11:47.592Z,60.89
2018-03-22T02:12:47.682Z,60.51
2018-03-22T02:13:47.618Z,60.03
2018-03-22T02:14:47.621Z,60.58
2018-03-22T02:15:47.637Z,60.41
2018-03-22T02:16:47.647Z,60.32
2018-03-22T02:17:47.662Z,60.70
2018-03-22T02:18:47.680Z,60.13
2018-03-22T02:19:47.690Z,60.29
2018-03-22T02:20:47.726Z,62.44
2018-03-22T02:21:47.719Z,63.76
2018-03-22T02:22:47.729Z,63.95
2018-03-22T02:23:47.741Z,63.76
2018-03-22T02:24:47.773Z,65.18
2018-03-22T02:25:47.765Z,64.90
2018-03-22T02:26:47.784Z,64.45
2018-03-22T02:27:47.798Z,63.60
2018-03-22T02:28:47.811Z,62.66
2018-03-22T02:29:47.829Z,62.18
2018-03-22T02:30:47.833Z,61.24
2018-03-22T02:31:47.847Z,61.52
2018-03-22T02:32:47.867Z,61.61
2018-03-22T02:33:47.876Z,61.33
2018-03-22T02:34:47.894Z,61.90
2018-03-22T02:35:47.900Z,61.52
2018-03-22T02:36:47.911Z,62.18
2018-03-22T02:37:47.928Z,62.66
2018-03-22T02:38:47.984Z,63.76
2018-03-22T02:39:47.959Z,64.90
2018-03-22T02:40:47.963Z,64.80
2018-03-22T02:41:47.979Z,64.99
2018-03-22T02:42:48.134Z,65.28
2018-03-22T02:43:48.006Z,65.84
2018-03-22T02:44:48.023Z,66.31
2018-03-22T02:45:48.036Z,66.69
2018-03-22T02:46:48.053Z,66.50
2018-03-22T02:47:48.059Z,65.75
2018-03-22T02:48:48.068Z,65.37
2018-03-22T02:49:48.085Z,65.09
2018-03-22T02:50:48.100Z,64.36
2018-03-22T02:51:48.107Z,63.42
2018-03-22T02:52:48.124Z,63.23
2018-03-22T02:53:48.137Z,63.79
2018-03-22T02:54:48.153Z,63.51
2018-03-22T02:55:48.162Z,62.85
2018-03-22T02:56:48.183Z,62.75
2018-03-22T02:57:48.203Z,63.04
2018-03-22T02:58:48.213Z,63.85
2018-03-22T02:59:48.214Z,64.99
2018-03-22T03:00:48.226Z,64.99
2018-03-22T03:01:48.252Z,66.03
2018-03-22T03:02:48.256Z,66.13
2018-03-22T03:03:48.273Z,66.69
2018-03-22T03:04:48.283Z,67.17
2018-03-22T03:05:48.296Z,67.51
2018-03-22T03:06:48.307Z,67.26
2018-03-22T03:07:48.321Z,67.36
2018-03-22T03:08:48.332Z,67.89
2018-03-22T03:09:48.344Z,68.08
2018-03-22T03:10:48.365Z,67.98
2018-03-22T03:11:48.371Z,68.17
2018-03-22T03:12:48.426Z,68.27
2018-03-22T03:13:48.420Z,67.74
2018-03-22T03:14:48.458Z,67.45
2018-03-22T03:15:48.424Z,67.26
2018-03-22T03:16:48.440Z,67.45
2018-03-22T03:17:48.496Z,68.21
2018-03-22T03:18:48.459Z,67.93
2018-03-22T03:19:48.479Z,66.60
2018-03-22T03:20:48.484Z,66.03
2018-03-22T03:21:48.500Z,65.47
2018-03-22T03:22:48.517Z,64.99
2018-03-22T03:23:48.526Z,65.84
2018-03-22T03:24:48.536Z,66.60
2018-03-22T03:25:48.603Z,68.46
2018-03-22T03:26:48.562Z,69.06
2018-03-22T03:27:48.578Z,69.06
2018-03-22T03:28:48.631Z,68.93
2018-03-22T03:29:48.607Z,69.02
2018-03-22T03:30:48.618Z,68.74
2018-03-22T03:31:48.636Z,69.21
2018-03-22T03:32:48.645Z,67.93
2018-03-22T03:33:48.656Z,66.69
2018-03-22T03:34:48.665Z,65.50
2018-03-22T03:35:48.678Z,64.93
2018-03-22T03:36:48.690Z,64.83
2018-03-22T03:37:48.704Z,65.37
2018-03-22T03:38:48.723Z,66.69
2018-03-22T03:39:48.733Z,67.26
2018-03-22T03:40:48.741Z,66.50
2018-03-22T03:41:48.756Z,65.59
2018-03-22T03:42:48.772Z,65.12
2018-03-22T03:43:48.782Z,64.93
2018-03-22T03:44:48.791Z,64.83
2018-03-22T03:45:48.808Z,64.83
2018-03-22T03:46:48.817Z,65.47
2018-03-22T03:47:48.837Z,66.69
2018-03-22T03:48:48.846Z,67.64
2018-03-22T03:49:48.861Z,67.93
2018-03-22T03:50:48.874Z,67.17
2018-03-22T03:51:48.889Z,68.12
2018-03-22T03:52:48.897Z,67.07
2018-03-22T03:53:48.906Z,66.41
2018-03-22T03:54:48.926Z,65.75
2018-03-22T03:55:48.932Z,65.94
2018-03-22T03:56:48.945Z,66.69
2018-03-22T03:57:48.961Z,67.93
2018-03-22T03:58:48.970Z,69.12
2018-03-22T03:59:48.987Z,69.31
2018-03-22T04:00:48.997Z,69.49
2018-03-22T04:01:49.011Z,70.06
2018-03-22T04:02:49.025Z,70.44
2018-03-22T04:03:49.036Z,70.63
2018-03-22T04:04:49.051Z,70.54
2018-03-22T04:05:49.056Z,70.54
2018-03-22T04:06:49.073Z,70.54
2018-03-22T04:07:49.082Z,70.16
2018-03-22T04:08:49.102Z,70.16
2018-03-22T04:09:49.117Z,70.06
2018-03-22T04:10:49.125Z,70.20
2018-03-22T04:11:49.135Z,69.82
2018-03-22T04:12:49.149Z,70.10
2018-03-22T04:13:49.159Z,69.15
2018-03-22T04:14:49.187Z,69.53
2018-03-22T04:15:49.192Z,69.21
2018-03-22T04:16:49.201Z,69.25
2018-03-22T04:17:49.216Z,69.82
2018-03-22T04:18:49.236Z,69.15
2018-03-22T04:19:49.240Z,68.59
2018-03-22T04:20:49.259Z,67.55
2018-03-22T04:21:49.265Z,68.77
2018-03-22T04:22:49.282Z,69.15
2018-03-22T04:23:49.501Z,68.96
2018-03-22T04:24:49.318Z,68.40
2018-03-22T04:25:49.319Z,68.87
2018-03-22T04:26:49.410Z,69.53
2018-03-22T04:27:49.345Z,69.78
2018-03-22T04:28:49.372Z,69.06
2018-03-22T04:29:49.370Z,68.30
2018-03-22T04:30:49.379Z,68.21
2018-03-22T04:31:49.392Z,69.25
2018-03-22T04:32:49.399Z,68.02
2018-03-22T04:33:49.411Z,67.93
2018-03-22T04:34:49.425Z,68.12
2018-03-22T04:35:49.448Z,68.59
2018-03-22T04:36:49.465Z,68.12
2018-03-22T04:37:49.468Z,66.69
2018-03-22T04:38:49.481Z,66.31
2018-03-22T04:39:49.490Z,66.88
2018-03-22T04:40:49.500Z,67.64
2018-03-22T04:41:49.515Z,68.02
2018-03-22T04:42:49.526Z,69.06
2018-03-22T04:43:49.544Z,68.77
2018-03-22T04:44:49.556Z,69.12
2018-03-22T04:45:49.566Z,69.72
2018-03-22T04:46:49.579Z,69.25
2018-03-22T04:47:49.598Z,69.25
2018-03-22T04:48:49.605Z,69.34
2018-03-22T04:49:49.613Z,68.59
2018-03-22T04:50:49.633Z,68.02
2018-03-22T04:51:49.642Z,67.93
2018-03-22T04:52:49.651Z,67.55
2018-03-22T04:53:49.672Z,68.12
2018-03-22T04:54:49.686Z,68.59
2018-03-22T04:55:49.695Z,69.40
2018-03-22T04:56:49.707Z,70.06
2018-03-22T04:57:49.716Z,71.01
2018-03-22T04:58:49.729Z,72.52
2018-03-22T04:59:49.740Z,71.71
2018-03-22T05:00:49.769Z,69.44
2018-03-22T05:01:49.778Z,68.49
2018-03-22T05:02:49.785Z,67.64
2018-03-22T05:03:49.816Z,67.26
2018-03-22T05:04:49.810Z,66.88
2018-03-22T05:05:49.816Z,66.73
2018-03-22T05:06:49.841Z,66.63
2018-03-22T05:07:49.847Z,66.06
2018-03-22T05:08:49.853Z,65.50
2018-03-22T05:09:49.864Z,65.02
2018-03-22T05:10:49.884Z,65.75
2018-03-22T05:11:49.893Z,65.84
2018-03-22T05:12:49.914Z,66.44
2018-03-22T05:13:49.933Z,65.97
2018-03-22T05:14:49.933Z,66.06
2018-03-22T05:15:49.947Z,65.75
2018-03-22T05:16:49.955Z,65.84
2018-03-22T05:17:49.967Z,67.17
2018-03-22T05:18:49.979Z,67.93
2018-03-22T05:19:49.998Z,67.93
2018-03-22T05:20:50.011Z,68.59
2018-03-22T05:21:50.020Z,68.77
2018-03-22T05:22:50.039Z,68.55
2018-03-22T05:23:50.044Z,68.36
2018-03-22T05:24:50.058Z,68.46
2018-03-22T05:25:50.068Z,68.36
2018-03-22T05:26:50.087Z,67.89
2018-03-22T05:27:50.093Z,67.79
2018-03-22T05:28:50.102Z,68.02
2018-03-22T05:29:50.117Z,66.88
2018-03-22T05:30:50.159Z,65.18
2018-03-22T05:31:50.143Z,64.23
2018-03-22T05:32:50.155Z,63.48
2018-03-22T05:33:50.172Z,63.57
2018-03-22T05:34:50.182Z,64.14
2018-03-22T05:35:50.206Z,63.01
2018-03-22T05:36:50.206Z,62.44
2018-03-22T05:37:50.228Z,62.82
2018-03-22T05:38:50.236Z,62.82
2018-03-22T05:39:50.275Z,61.96
2018-03-22T05:40:50.258Z,61.68
2018-03-22T05:41:50.273Z,60.55
2018-03-22T05:42:50.284Z,60.45
2018-03-22T05:43:50.301Z,59.69
2018-03-22T05:44:50.309Z,59.44
2018-03-22T05:45:50.327Z,57.64
2018-03-22T05:46:50.336Z,57.07
2018-03-22T05:47:50.350Z,56.13
2018-03-22T05:48:50.356Z,56.60
2018-03-22T05:49:50.380Z,56.41
2018-03-22T05:50:50.386Z,56.41
2018-03-22T05:51:50.444Z,56.60
2018-03-22T05:52:50.411Z,56.41
2018-03-22T05:53:50.419Z,56.22
2018-03-22T05:54:50.434Z,56.13
2018-03-22T05:55:50.451Z,56.79
2018-03-22T05:56:50.460Z,56.88
2018-03-22T05:57:50.472Z,56.98
2018-03-22T05:58:50.486Z,57.83
2018-03-22T05:59:50.502Z,58.30
2018-03-22T06:00:50.509Z,58.21
2018-03-22T06:01:50.520Z,58.59
2018-03-22T06:02:50.533Z,58.59
2018-03-22T06:03:50.635Z,59.53
2018-03-22T06:04:50.571Z,59.81
2018-03-22T06:05:50.600Z,59.44
2018-03-22T06:06:50.585Z,59.44
2018-03-22T06:07:50.595Z,59.25
2018-03-22T06:08:50.643Z,58.97
2018-03-22T06:09:50.620Z,58.02
2018-03-22T06:10:50.635Z,57.73
2018-03-22T06:11:50.649Z,57.64
2018-03-22T06:12:50.657Z,57.35
2018-03-22T06:13:50.671Z,56.88
2018-03-22T06:14:50.687Z,56.51
2018-03-22T06:15:50.715Z,56.79
2018-03-22T06:16:50.714Z,56.51
2018-03-22T06:17:50.722Z,56.72
2018-03-22T06:18:50.733Z,56.32
2018-03-22T06:19:50.754Z,55.84
2018-03-22T06:20:50.759Z,55.56
2018-03-22T06:21:50.771Z,55.65
2018-03-22T06:22:50.787Z,55.56
2018-03-22T06:23:50.797Z,55.27
2018-03-22T06:24:50.807Z,55.37
2018-03-22T06:25:50.828Z,55.37
2018-03-22T06:26:50.845Z,55.37
2018-03-22T06:27:50.870Z,54.99
2018-03-22T06:28:50.874Z,54.23
2018-03-22T06:29:50.907Z,54.42
2018-03-22T06:30:50.923Z,54.45
2018-03-22T06:31:50.900Z,53.88
2018-03-22T06:32:50.919Z,53.76
2018-03-22T06:33:50.928Z,53.57
2018-03-22T06:34:50.939Z,53.85
2018-03-22T06:35:50.952Z,54.23
2018-03-22T06:36:50.959Z,54.33
2018-03-22T06:37:50.974Z,53.85
2018-03-22T06:38:50.991Z,54.16
2018-03-22T06:39:51.008Z,53.66
2018-03-22T06:40:51.015Z,54.16
2018-03-22T06:41:51.026Z,53.50
2018-03-22T06:42:51.036Z,53.50
2018-03-22T06:43:51.060Z,53.22
2018-03-22T06:44:51.066Z,53.50
2018-03-22T06:45:51.087Z,53.31
2018-03-22T06:46:51.104Z,53.03
2018-03-22T06:47:51.106Z,53.13
2018-03-22T06:48:51.117Z,53.41
2018-03-22T06:49:51.134Z,53.22
2018-03-22T06:50:51.140Z,53.57
2018-03-22T06:51:51.162Z,53.41
2018-03-22T06:52:51.165Z,53.31
2018-03-22T06:53:51.175Z,53.57
2018-03-22T06:54:51.194Z,53.76
2018-03-22T06:55:51.200Z,54.26
2018-03-22T06:56:51.220Z,53.69
2018-03-22T06:57:51.229Z,52.84
2018-03-22T06:58:51.241Z,53.13
2018-03-22T06:59:51.259Z,53.31
2018-03-22T07:00:51.271Z,53.41
2018-03-22T07:01:51.276Z,53.41
2018-03-22T07:02:51.308Z,53.31
2018-03-22T07:03:51.314Z,53.13
2018-03-22T07:04:51.350Z,53.59
2018-03-22T07:05:51.334Z,53.69
2018-03-22T07:06:51.385Z,53.59
2018-03-22T07:07:51.357Z,53.88
2018-03-22T07:08:51.375Z,53.59
2018-03-22T07:09:51.385Z,53.47
2018-03-22T07:10:51.399Z,54.07
2018-03-22T07:11:51.408Z,53.59
2018-03-22T07:12:51.420Z,53.78
2018-03-22T07:13:51.429Z,53.69
2018-03-22T07:14:51.445Z,53.31
2018-03-22T07:15:51.454Z,53.41
2018-03-22T07:16:51.492Z,53.03
2018-03-22T07:17:51.477Z,53.59
2018-03-22T07:18:51.500Z,53.13
2018-03-22T07:19:51.523Z,52.46
2018-03-22T07:20:51.514Z,52.08
2018-03-22T07:21:51.532Z,51.51
2018-03-22T07:22:51.550Z,51.80
2018-03-22T07:23:51.562Z,51.70
2018-03-22T07:24:51.572Z,51.89
2018-03-22T07:25:51.588Z,51.42
2018-03-22T07:26:51.597Z,51.99
2018-03-22T07:27:51.609Z,51.70
2018-03-22T07:28:51.622Z,51.32
2018-03-22T07:29:51.643Z,52.25
2018-03-22T07:30:51.648Z,53.03
2018-03-22T07:31:51.660Z,52.27
2018-03-22T07:32:51.670Z,52.46
2018-03-22T07:33:51.685Z,52.18
2018-03-22T07:34:51.700Z,52.56
2018-03-22T07:35:51.712Z,52.08
2018-03-22T07:36:51.770Z,51.26
2018-03-22T07:37:51.745Z,50.49
2018-03-22T07:38:51.752Z,50.02
2018-03-22T07:39:51.766Z,49.84
2018-03-22T07:40:51.783Z,49.74
2018-03-22T07:41:51.790Z,49.46
2018-03-22T07:42:51.804Z,49.65
2018-03-22T07:43:51.824Z,49.74
2018-03-22T07:44:51.843Z,49.55
2018-03-22T07:45:51.847Z,49.36
2018-03-22T07:46:51.854Z,49.27
2018-03-22T07:47:51.870Z,49.55
2018-03-22T07:48:51.888Z,49.27
2018-03-22T07:49:51.894Z,49.36
2018-03-22T07:50:51.908Z,49.36
2018-03-22T07:51:51.921Z,49.08
2018-03-22T07:52:51.936Z,49.27
2018-03-22T07:53:51.958Z,49.65
2018-03-22T07:54:51.962Z,49.65
2018-03-22T07:55:51.994Z,49.74
2018-03-22T07:56:51.988Z,49.17
2018-03-22T07:57:51.999Z,49.08
2018-03-22T07:58:52.025Z,49.46
2018-03-22T07:59:52.032Z,49.27
2018-03-22T08:00:52.038Z,49.08
2018-03-22T08:01:52.059Z,48.89
2018-03-22T08:02:52.067Z,48.79
2018-03-22T08:03:52.080Z,48.98
2018-03-22T08:04:52.092Z,49.17
2018-03-22T08:05:52.127Z,49.74
2018-03-22T08:06:52.119Z,49.36
2018-03-22T08:07:52.132Z,49.55
2018-03-22T08:08:52.171Z,49.65
2018-03-22T08:09:52.162Z,49.27
2018-03-22T08:10:52.183Z,48.98
2018-03-22T08:11:52.190Z,49.55
2018-03-22T08:12:52.199Z,50.02
2018-03-22T08:13:52.209Z,50.02
2018-03-22T08:14:52.238Z,50.21
2018-03-22T08:15:52.244Z,49.65
2018-03-22T08:16:52.253Z,50.69
2018-03-22T08:17:52.267Z,50.12
2018-03-22T08:18:52.275Z,49.55
2018-03-22T08:19:52.290Z,49.27
2018-03-22T08:20:52.306Z,49.74
2018-03-22T08:21:52.317Z,49.36
2018-03-22T08:22:52.332Z,49.46
2018-03-22T08:23:52.345Z,49.46
2018-03-22T08:24:52.359Z,49.17
2018-03-22T08:25:52.388Z,49.74
2018-03-22T08:26:52.410Z,49.55
2018-03-22T08:27:52.407Z,49.65
2018-03-22T08:28:52.409Z,49.46
2018-03-22T08:29:52.537Z,49.48
2018-03-22T08:30:52.443Z,49.46
2018-03-22T08:31:52.458Z,49.76
2018-03-22T08:32:52.473Z,49.74
2018-03-22T08:33:52.479Z,49.29
2018-03-22T08:34:52.496Z,49.29
2018-03-22T08:35:52.503Z,49.76
2018-03-22T08:36:52.519Z,49.19
2018-03-22T08:37:52.527Z,49.01
2018-03-22T08:38:52.550Z,49.19
2018-03-22T08:39:52.559Z,49.95
2018-03-22T08:40:52.573Z,49.55
2018-03-22T08:41:52.651Z,49.74
2018-03-22T08:42:52.598Z,50.02
2018-03-22T08:43:52.623Z,50.05
2018-03-22T08:44:52.623Z,49.67
2018-03-22T08:45:52.636Z,49.57
2018-03-22T08:46:52.645Z,49.95
2018-03-22T08:47:52.665Z,50.05
2018-03-22T08:48:52.673Z,49.57
2018-03-22T08:49:52.692Z,49.95
2018-03-22T08:50:52.705Z,49.95
2018-03-22T08:51:52.731Z,49.95
2018-03-22T08:52:52.727Z,50.34
2018-03-22T08:53:52.786Z,50.62
2018-03-22T08:54:52.761Z,49.76
2018-03-22T08:55:52.775Z,49.76
2018-03-22T08:56:52.779Z,49.38
2018-03-22T08:57:52.795Z,49.10
2018-03-22T08:58:52.806Z,49.29
2018-03-22T08:59:52.819Z,49.19
2018-03-22T09:00:52.835Z,49.13
2018-03-22T09:01:52.842Z,48.72
2018-03-22T09:02:52.862Z,48.91
2018-03-22T09:03:52.878Z,48.46
2018-03-22T09:04:52.886Z,48.44
2018-03-22T09:05:52.895Z,48.82
2018-03-22T09:06:52.918Z,48.72
2018-03-22T09:07:52.936Z,48.72
2018-03-22T09:08:52.935Z,48.72
2018-03-22T09:09:52.952Z,48.34
2018-03-22T09:10:53.012Z,48.54
2018-03-22T09:11:52.982Z,48.46
2018-03-22T09:12:52.995Z,47.89
2018-03-22T09:13:53.006Z,47.13
2018-03-22T09:14:53.041Z,46.94
2018-03-22T09:15:53.034Z,47.04
2018-03-22T09:16:53.046Z,46.37
2018-03-22T09:17:53.058Z,46.28
2018-03-22T09:18:53.074Z,46.09
2018-03-22T09:19:53.089Z,45.71
2018-03-22T09:20:53.101Z,46.09
2018-03-22T09:21:53.130Z,46.00
2018-03-22T09:22:53.130Z,45.81
2018-03-22T09:23:53.146Z,45.62
2018-03-22T09:24:53.161Z,45.90
2018-03-22T09:25:53.175Z,45.81
2018-03-22T09:26:53.184Z,46.00
2018-03-22T09:27:53.242Z,45.71
2018-03-22T09:28:53.214Z,45.43
2018-03-22T09:29:53.224Z,45.71
2018-03-22T09:30:53.242Z,46.00
2018-03-22T09:31:53.263Z,45.90
2018-03-22T09:32:53.267Z,45.62
2018-03-22T09:33:53.285Z,45.24
2018-03-22T09:34:53.340Z,45.14
2018-03-22T09:35:53.317Z,45.14
2018-03-22T09:36:53.322Z,45.17
2018-03-22T09:37:53.339Z,44.98
2018-03-22T09:38:53.363Z,44.69
2018-03-22T09:39:53.378Z,44.88
2018-03-22T09:40:53.379Z,44.79
2018-03-22T09:41:53.482Z,45.07
2018-03-22T09:42:53.413Z,45.64
2018-03-22T09:43:53.427Z,45.52
2018-03-22T09:44:53.440Z,45.83
2018-03-22T09:45:53.467Z,45.81
2018-03-22T09:46:53.470Z,46.00
2018-03-22T09:47:53.488Z,45.54
2018-03-22T09:48:53.501Z,45.64
2018-03-22T09:49:53.513Z,45.52
2018-03-22T09:50:53.527Z,46.02
2018-03-22T09:51:53.544Z,45.83
2018-03-22T09:52:53.563Z,46.02
2018-03-22T09:53:53.582Z,46.09
2018-03-22T09:54:53.583Z,45.81
2018-03-22T09:55:53.603Z,45.62
2018-03-22T09:56:53.610Z,45.71
2018-03-22T09:57:53.629Z,45.83
2018-03-22T09:58:53.642Z,46.00
2018-03-22T09:59:53.658Z,46.09
2018-03-22T10:00:53.675Z,46.30
2018-03-22T10:01:53.688Z,45.83
2018-03-22T10:02:53.712Z,45.73
2018-03-22T10:03:53.717Z,45.73
2018-03-22T10:04:53.729Z,45.45
2018-03-22T10:05:53.748Z,45.73
2018-03-22T10:06:53.777Z,45.73
2018-03-22T10:07:53.806Z,45.92
2018-03-22T10:08:53.795Z,46.37
2018-03-22T10:09:53.805Z,46.49
2018-03-22T10:10:53.822Z,46.02
2018-03-22T10:11:53.845Z,46.30
2018-03-22T10:12:53.849Z,46.02
2018-03-22T10:13:53.861Z,46.40
2018-03-22T10:14:53.878Z,45.83
2018-03-22T10:15:53.894Z,47.34
2018-03-22T10:16:53.908Z,47.44
2018-03-22T10:17:53.924Z,47.73
2018-03-22T10:18:53.939Z,47.73
2018-03-22T10:19:53.951Z,47.53
2018-03-22T10:20:53.965Z,47.73
2018-03-22T10:21:53.991Z,47.44
2018-03-22T10:22:53.995Z,47.82
2018-03-22T10:23:54.008Z,47.92
2018-03-22T10:24:54.033Z,48.11
2018-03-22T10:25:54.049Z,48.39
2018-03-22T10:26:54.066Z,48.20
2018-03-22T10:27:54.073Z,48.20
2018-03-22T10:28:54.092Z,48.01
2018-03-22T10:29:54.110Z,47.92
2018-03-22T10:30:54.116Z,47.92
2018-03-22T10:31:54.132Z,47.92
2018-03-22T10:32:54.150Z,48.11
2018-03-22T10:33:54.165Z,48.20
2018-03-22T10:34:54.177Z,48.20
2018-03-22T10:35:54.206Z,48.11
2018-03-22T10:36:54.201Z,47.92
2018-03-22T10:37:54.222Z,48.39
2018-03-22T10:38:54.235Z,48.49
2018-03-22T10:39:54.254Z,48.77
2018-03-22T10:40:54.264Z,50.01
2018-03-22T10:41:54.284Z,50.83
2018-03-22T10:42:54.294Z,50.67
2018-03-22T10:43:54.311Z,50.64
2018-03-22T10:44:54.321Z,51.68
2018-03-22T10:45:54.339Z,52.16
2018-03-22T10:46:54.352Z,53.30
2018-03-22T10:47:54.388Z,53.77
2018-03-22T10:48:54.380Z,55.38
2018-03-22T10:49:54.399Z,55.86
2018-03-22T10:50:54.412Z,56.52
2018-03-22T10:51:54.436Z,56.62
2018-03-22T10:52:54.444Z,56.99
2018-03-22T10:53:54.462Z,57.76
2018-03-22T10:54:54.476Z,58.99
2018-03-22T10:55:54.567Z,59.18
2018-03-22T10:56:54.503Z,58.70
2018-03-22T10:57:54.518Z,58.07
2018-03-22T10:58:54.535Z,58.45
2018-03-22T10:59:54.553Z,57.79
2018-03-22T11:00:54.576Z,57.31
2018-03-22T11:01:54.581Z,57.50
2018-03-22T11:02:54.592Z,57.40
2018-03-22T11:03:54.604Z,58.36
2018-03-22T11:04:54.626Z,57.69
2018-03-22T11:05:54.633Z,58.07
2018-03-22T11:06:54.651Z,57.53
2018-03-22T11:07:54.675Z,57.72
2018-03-22T11:08:54.680Z,58.00
2018-03-22T11:09:54.698Z,58.54
2018-03-22T11:10:54.723Z,58.73
2018-03-22T11:11:54.727Z,58.39
2018-03-22T11:12:54.742Z,58.76
2018-03-22T11:13:54.777Z,59.11
2018-03-22T11:14:54.773Z,59.33
2018-03-22T11:15:54.785Z,59.24
2018-03-22T11:16:54.797Z,58.86
2018-03-22T11:17:54.830Z,59.05
2018-03-22T11:18:54.835Z,58.83
2018-03-22T11:19:54.851Z,59.33
2018-03-22T11:20:54.870Z,59.24
2018-03-22T11:21:54.940Z,59.14
2018-03-22T11:22:54.893Z,59.49
2018-03-22T11:23:54.907Z,59.81
2018-03-22T11:24:54.919Z,59.62
2018-03-22T11:25:54.933Z,59.43
2018-03-22T11:26:54.948Z,59.81
2018-03-22T11:27:54.961Z,59.52
2018-03-22T11:28:54.975Z,59.52
2018-03-22T11:29:55.005Z,58.95
2018-03-22T11:30:55.018Z,58.86
2018-03-22T11:31:55.026Z,58.86
2018-03-22T11:32:55.038Z,58.95
2018-03-22T11:33:55.056Z,58.95
2018-03-22T11:34:55.065Z,58.29
2018-03-22T11:35:55.087Z,57.81
2018-03-22T11:36:55.100Z,57.62
2018-03-22T11:37:55.116Z,57.34
2018-03-22T11:38:55.132Z,58.17
2018-03-22T11:39:55.149Z,58.10
2018-03-22T11:40:55.167Z,58.29
2018-03-22T11:41:55.179Z,57.43
2018-03-22T11:42:55.195Z,56.96
2018-03-22T11:43:55.210Z,56.68
2018-03-22T11:44:55.228Z,56.87
2018-03-22T11:45:55.243Z,56.39
2018-03-22T11:46:55.256Z,56.39
2018-03-22T11:47:55.269Z,55.73
2018-03-22T11:48:55.286Z,55.63
2018-03-22T11:49:55.299Z,55.82
2018-03-22T11:50:55.320Z,55.73
2018-03-22T11:51:55.338Z,57.21
2018-03-22T11:52:55.366Z,58.07
2018-03-22T11:53:55.379Z,58.26
2018-03-22T11:54:55.385Z,58.07
2018-03-22T11:55:55.397Z,58.00
2018-03-22T11:56:55.456Z,58.10
2018-03-22T11:57:55.429Z,57.91
2018-03-22T11:58:55.438Z,57.81
2018-03-22T11:59:55.452Z,57.72
2018-03-22T12:00:55.471Z,57.53
2018-03-22T12:01:55.491Z,58.00
2018-03-22T12:02:55.499Z,58.00
2018-03-22T12:03:55.522Z,58.48
2018-03-22T12:04:55.530Z,57.91
2018-03-22T12:05:55.551Z,58.39
2018-03-22T12:06:55.568Z,58.10
2018-03-22T12:07:55.582Z,58.20
2018-03-22T12:08:55.609Z,58.95
2018-03-22T12:09:55.618Z,59.52
2018-03-22T12:10:55.626Z,59.71
2018-03-22T12:11:55.653Z,58.86
2018-03-22T12:12:55.658Z,58.29
2018-03-22T12:13:55.667Z,58.76
2018-03-22T12:14:55.686Z,59.33
2018-03-22T12:15:55.704Z,59.62
2018-03-22T12:16:55.712Z,59.71
2018-03-22T12:17:55.740Z,58.95
2018-03-22T12:18:55.751Z,59.33
2018-03-22T12:19:55.769Z,58.95
2018-03-22T12:20:55.778Z,58.86
2018-03-22T12:21:55.790Z,58.95
2018-03-22T12:22:55.812Z,60.10
2018-03-22T12:23:55.822Z,60.10
2018-03-22T12:24:55.842Z,60.10
2018-03-22T12:25:55.858Z,60.57
2018-03-22T12:26:55.889Z,61.42
2018-03-22T12:27:55.886Z,61.90
2018-03-22T12:28:55.903Z,60.76
2018-03-22T12:29:55.913Z,60.76
2018-03-22T12:30:55.932Z,62.08
2018-03-22T12:31:55.951Z,63.01
2018-03-22T12:32:55.963Z,63.67
2018-03-22T12:33:55.979Z,64.05
2018-03-22T12:34:55.993Z,64.33
2018-03-22T12:35:56.020Z,65.19
2018-03-22T12:36:56.023Z,65.09
2018-03-22T12:37:56.036Z,65.00
2018-03-22T12:38:56.061Z,64.33
2018-03-22T12:39:56.080Z,65.00
2018-03-22T12:40:56.104Z,64.65
2018-03-22T12:41:56.108Z,65.12
2018-03-22T12:42:56.141Z,64.27
2018-03-22T12:43:56.146Z,65.31
2018-03-22T12:44:56.151Z,65.75
2018-03-22T12:45:56.169Z,66.83
2018-03-22T12:46:56.177Z,67.46
2018-03-22T12:47:56.197Z,68.23
2018-03-22T12:48:56.234Z,69.17
2018-03-22T12:49:56.222Z,70.59
2018-03-22T12:50:56.244Z,70.59
2018-03-22T12:51:56.254Z,70.59
2018-03-22T12:52:56.263Z,70.88